KG6SIB Weather Reports


Display with metric or nautical units.
time (UTC)temp
F
wind
direction
speed
MPH
gust
MPH
rain 1hr
in
rain 24hr
in
rain mn
in
humidity
%
barometer
mb
20260902231734 82 201 11.0 13.0 0.00 0.00 0.00 32 1017.1
20260902231234 82 221 7.0 11.0 0.00 0.00 0.00 30 1017.2
20260902230734 82 221 7.0 13.0 0.00 0.00 0.00 30 1017.3
20260902225734 82 246 4.0 14.0 0.00 0.00 0.00 33 1017.5
20260902225233 82 230 4.0 12.0 0.00 0.00 0.00 32 1017.4
20260902224735 82 240 10.0 14.0 0.00 0.00 0.00 32 1017.4
20260902224234 82 189 2.0 14.0 0.00 0.00 0.00 32 1017.5
20260902223233 83 248 8.0 13.0 0.00 0.00 0.00 31 1017.7
20260902222733 84 242 8.0 15.0 0.00 0.00 0.00 29 1017.8
20260902222234 84 240 6.0 15.0 0.00 0.00 0.00 28 1017.7
20260902221733 84 228 5.0 14.0 0.00 0.00 0.00 27 1017.5
20260902215722 85 314 1.0 14.0 0.00 0.00 0.00 27 1018.0
20260902215234 84 240 2.0 14.0 0.00 0.00 0.00 26 1017.7
20260902213733 84 219 7.0 13.0 0.00 0.00 0.00 24 1017.9
20260902213233 85 253 10.0 12.0 0.00 0.00 0.00 22 1018.1
20260902212733 86 240 10.0 14.0 0.00 0.00 0.00 22 1018.2
20260902212233 86 238 4.0 14.0 0.00 0.00 0.00 21 1018.1
20260902211733 86 232 8.0 14.0 0.00 0.00 0.00 20 1018.0
20260902210733 85 252 12.0 16.0 0.00 0.00 0.00 19 1018.1
20260902210232 85 190 2.0 16.0 0.00 0.00 0.00 18 1018.2
20260902205732 85 202 4.0 16.0 0.00 0.00 0.00 17 1018.2
20260902205232 85 227 9.0 16.0 0.00 0.00 0.00 18 1018.2
20260902204733 84 247 9.0 19.0 0.00 0.00 0.00 21 1018.3
20260902204233 84 213 3.0 19.0 0.00 0.00 0.00 20 1018.5
20260902203732 85 273 19.0 19.0 0.00 0.00 0.00 22 1018.5
20260902203232 85 239 9.0 13.0 0.00 0.00 0.00 21 1018.5
20260902202232 84 225 8.0 17.0 0.00 0.00 0.00 21 1018.6
20260902201732 84 205 5.0 16.0 0.00 0.00 0.00 20 1018.6
20260902201227 84 240 9.0 16.0 0.00 0.00 0.00 20 1018.7
20260902200732 84 235 6.0 12.0 0.00 0.00 0.00 21 1018.7
20260902200232 84 250 4.0 13.0 0.00 0.00 0.00 21 1018.7
20260902195732 84 225 7.0 13.0 0.00 0.00 0.00 22 1018.6
20260902195232 84 277 1.0 13.0 0.00 0.00 0.00 22 1018.8
20260902194731 85 240 3.0 13.0 0.00 0.00 0.00 22 1019.1
20260902193231 85 229 3.0 13.0 0.00 0.00 0.00 18 1019.0
20260902192731 85 254 7.0 12.0 0.00 0.00 0.00 18 1019.0
20260902192232 84 198 4.0 11.0 0.00 0.00 0.00 16 1019.0
20260902191731 83 217 7.0 11.0 0.00 0.00 0.00 16 1018.9
20260902191231 82 224 4.0 11.0 0.00 0.00 0.00 18 1018.9
20260902190731 82 222 4.0 14.0 0.00 0.00 0.00 18 1019.0
20260902190231 82 228 4.0 14.0 0.00 0.00 0.00 18 1019.1
20260902185731 81 244 2.0 14.0 0.00 0.00 0.00 19 1018.9
20260902185232 81 242 5.0 12.0 0.00 0.00 0.00 19 1019.0
20260902184731 81 247 5.0 12.0 0.00 0.00 0.00 16 1019.0
20260902183731 83 234 5.0 14.0 0.00 0.00 0.00 16 1019.3
20260902183231 83 207 7.0 14.0 0.00 0.00 0.00 16 1019.4
20260902182719 83 212 5.0 16.0 0.00 0.00 0.00 15 1019.3
20260902182231 82 242 6.0 16.0 0.00 0.00 0.00 15 1019.2
20260902181731 82 218 7.0 19.0 0.00 0.00 0.00 15 1019.2
20260902181230 81 189 9.0 19.0 0.00 0.00 0.00 15 1019.1
20260902180231 82 242 5.0 12.0 0.00 0.00 0.00 14 1019.1
20260902175731 81 241 6.0 14.0 0.00 0.00 0.00 14 1019.1
20260902175231 81 232 10.0 14.0 0.00 0.00 0.00 15 1019.1
20260902172730 80 238 6.0 11.0 0.00 0.00 0.00 15 1019.0
20260902172230 80 217 2.0 9.0 0.00 0.00 0.00 15 1019.0
20260902171730 80 230 4.0 11.0 0.00 0.00 0.00 15 1018.9
20260902171230 80 239 8.0 11.0 0.00 0.00 0.00 14 1018.9
20260902170729 80 234 1.0 11.0 0.00 0.00 0.00 15 1018.8
20260902170230 79 259 2.0 12.0 0.00 0.00 0.00 15 1018.8
20260902165730 78 233 3.0 12.0 0.00 0.00 0.00 16 1018.7
20260902164730 78 247 4.0 9.0 0.00 0.00 0.00 16 1018.7
20260902164230 78 238 2.0 10.0 0.00 0.00 0.00 16 1018.6
20260902162729 78 234 1.0 10.0 0.00 0.00 0.00 16 1018.5
20260902161729 78 231 3.0 10.0 0.00 0.00 0.00 16 1018.5
20260902161229 78 269 1.0 8.0 0.00 0.00 0.00 16 1018.5
20260902160729 78 222 0.0 5.0 0.00 0.00 0.00 16 1018.5
20260902160229 77 246 0.0 7.0 0.00 0.00 0.00 17 1018.5
20260902155729 77 246 2.0 7.0 0.00 0.00 0.00 17 1018.7
20260902155229 77 234 1.0 6.0 0.00 0.00 0.00 17 1018.6
20260902154229 75 89 0.0 0.0 0.00 0.00 0.00 19 1018.3
20260902153729 74 89 0.0 0.0 0.00 0.00 0.00 20 1018.2
20260902153229 74 89 0.0 0.0 0.00 0.00 0.00 19 1018.2
20260902152729 73 88 0.0 0.0 0.00 0.00 0.00 20 1018.0
20260902152229 72 88 0.0 2.0 0.00 0.00 0.00 24 1018.1
20260902151228 68 88 1.0 4.0 0.00 0.00 0.00 25 1017.6
20260902150728 66 88 2.0 5.0 0.00 0.00 0.00 28 1017.4
20260902150258 64 88 1.0 5.0 0.00 0.00 0.00 28 1017.1
20260902145728 62 76 5.0 7.0 0.00 0.00 0.00 29 1017.6
20260902145228 61 79 3.0 7.0 0.00 0.00 0.00 30 1017.7
20260902144728 60 71 3.0 8.0 0.00 0.00 0.00 31 1017.4
20260902143728 57 50 4.0 8.0 0.00 0.00 0.00 33 1017.3
20260902143228 56 71 5.0 8.0 0.00 0.00 0.00 35 1017.0
20260902142728 54 62 4.0 8.0 0.00 0.00 0.00 35 1016.8
20260902142228 53 48 4.0 8.0 0.00 0.00 0.00 36 1016.7
20260902141727 52 67 4.0 8.0 0.00 0.00 0.00 37 1016.5
20260902141228 51 43 4.0 8.0 0.00 0.00 0.00 38 1016.5
20260902140727 50 70 6.0 8.0 0.00 0.00 0.00 38 1016.3
20260902140258 50 46 5.0 8.0 0.00 0.00 0.00 38 1016.2
20260902135728 50 86 5.0 10.0 0.00 0.00 0.00 38 1016.8
20260902135228 50 66 4.0 10.0 0.00 0.00 0.00 38 1016.7
20260902134727 50 39 4.0 9.0 0.00 0.00 0.00 38 1016.7
20260902134227 50 67 8.0 8.0 0.00 0.00 0.00 38 1016.6
20260902133258 50 65 4.0 8.0 0.00 0.00 0.00 38 1016.4
20260902132727 50 70 5.0 9.0 0.00 0.00 0.00 39 1016.4
20260902132257 50 57 5.0 9.0 0.00 0.00 0.00 39 1016.3
20260902131757 50 61 3.0 8.0 0.00 0.00 0.00 39 1016.3
20260902131257 49 60 3.0 8.0 0.00 0.00 0.00 39 1015.9
20260902130757 50 92 3.0 8.0 0.00 0.00 0.00 39 1016.2
20260902130256 50 59 5.0 9.0 0.00 0.00 0.00 40 1016.2
20260902125757 50 51 5.0 9.0 0.00 0.00 0.00 40 1017.0
20260902125256 50 59 6.0 8.0 0.00 0.00 0.00 40 1017.0
20260902124757 50 49 5.0 9.0 0.00 0.00 0.00 41 1017.0
20260902124256 49 41 5.0 9.0 0.00 0.00 0.00 41 1016.7
20260902123756 49 59 6.0 8.0 0.00 0.00 0.00 41 1016.6
20260902123257 49 53 5.0 9.0 0.00 0.00 0.00 42 1016.6
20260902122756 50 29 5.0 9.0 0.00 0.00 0.00 41 1016.8
20260902122256 50 46 4.0 9.0 0.00 0.00 0.00 41 1016.9
20260902121757 50 50 5.0 9.0 0.00 0.00 0.00 41 1016.9
20260902121256 50 71 8.0 9.0 0.00 0.00 0.00 40 1016.8
20260902120244 51 36 6.0 8.0 0.00 0.00 0.00 39 1016.8
20260902115256 51 94 2.0 9.0 0.00 0.00 0.00 38 1017.2
20260902114726 50 66 6.0 9.0 0.00 0.00 0.00 38 1017.1
20260902113757 50 49 5.0 9.0 0.00 0.00 0.00 38 1017.2
20260902113255 50 63 5.0 9.0 0.00 0.00 0.00 37 1017.2
20260902112255 50 74 5.0 8.0 0.00 0.00 0.00 37 1017.2
20260902111255 50 59 5.0 8.0 0.00 0.00 0.00 37 1017.3
20260902110755 50 51 6.0 8.0 0.00 0.00 0.00 37 1017.3
20260902110255 51 51 5.0 8.0 0.00 0.00 0.00 37 1017.4
20260902105755 51 46 4.0 8.0 0.00 0.00 0.00 37 1018.0
20260902105255 51 55 5.0 8.0 0.00 0.00 0.00 36 1018.0
20260902104755 51 55 3.0 8.0 0.00 0.00 0.00 36 1018.0
20260902104225 51 40 5.0 8.0 0.00 0.00 0.00 36 1018.1
20260902103755 52 54 5.0 8.0 0.00 0.00 0.00 37 1018.2
20260902102755 52 74 3.0 8.0 0.00 0.00 0.00 37 1018.2
20260902101754 52 49 5.0 7.0 0.00 0.00 0.00 37 1018.2
20260902101244 52 53 4.0 8.0 0.00 0.00 0.00 37 1018.2
20260902100724 52 76 4.0 9.0 0.00 0.00 0.00 37 1018.2
20260902100244 51 51 5.0 9.0 0.00 0.00 0.00 37 1018.3
20260902095754 51 59 9.0 9.0 0.00 0.00 0.00 37 1018.3
20260902095254 51 61 6.0 7.0 0.00 0.00 0.00 37 1018.3
20260902093724 52 69 4.0 9.0 0.00 0.00 0.00 37 1018.7
20260902093254 52 57 6.0 8.0 0.00 0.00 0.00 37 1018.6
20260902092754 52 59 7.0 8.0 0.00 0.00 0.00 37 1018.7
20260902091754 52 64 3.0 8.0 0.00 0.00 0.00 37 1018.7
20260902091254 52 45 5.0 8.0 0.00 0.00 0.00 37 1018.7
20260902090754 52 58 3.0 8.0 0.00 0.00 0.00 37 1018.7
20260902085754 52 44 6.0 8.0 0.00 0.00 0.00 37 1018.9
20260902085254 52 78 5.0 7.0 0.00 0.00 0.00 38 1019.0
20260902084753 52 74 7.0 7.0 0.00 0.00 0.00 38 1019.0
20260902084253 52 59 4.0 7.0 0.00 0.00 0.00 38 1019.0
20260902083253 52 71 5.0 7.0 0.00 0.00 0.00 38 1019.0
20260902082753 52 62 4.0 7.0 0.00 0.00 0.00 39 1019.0
20260902082253 52 63 5.0 7.0 0.00 0.00 0.00 39 1019.0
20260902081753 52 51 3.0 8.0 0.00 0.00 0.00 39 1019.1
20260902080753 52 40 3.0 7.0 0.00 0.00 0.00 40 1019.1
20260902080252 52 68 2.0 7.0 0.00 0.00 0.00 40 1019.0
20260902075252 52 71 5.0 8.0 0.00 0.00 0.00 40 1018.8
20260902074752 52 59 4.0 8.0 0.00 0.00 0.00 40 1018.8
20260902074253 52 38 5.0 8.0 0.00 0.00 0.00 40 1018.7
20260902073752 52 64 3.0 8.0 0.00 0.00 0.00 41 1018.7
20260902072752 52 44 4.0 7.0 0.00 0.00 0.00 40 1018.7
20260902072252 52 45 4.0 8.0 0.00 0.00 0.00 40 1018.6
20260902071752 52 65 5.0 8.0 0.00 0.00 0.00 40 1018.6
20260902071252 52 57 4.0 8.0 0.00 0.00 0.00 40 1018.6
20260902070752 52 78 5.0 8.0 0.00 0.00 0.00 40 1018.6
20260902070252 52 57 4.0 9.0 0.00 0.00 0.00 40 1018.5
20260902065252 52 55 6.0 9.0 0.00 0.00 0.00 40 1018.4
20260902064752 52 74 5.0 9.0 0.00 0.00 0.00 40 1018.3
20260902064252 52 59 7.0 9.0 0.00 0.00 0.00 41 1018.3
20260902063752 52 61 5.0 9.0 0.00 0.00 0.00 41 1018.3
20260902062741 52 57 4.0 8.0 0.00 0.00 0.00 41 1018.2
20260902062252 52 82 4.0 8.0 0.00 0.00 0.00 41 1018.2
20260902061752 52 69 3.0 8.0 0.00 0.00 0.00 41 1018.2
20260902061252 52 59 3.0 8.0 0.00 0.00 0.00 41 1018.1
20260902060752 53 55 4.0 9.0 0.00 0.00 0.00 41 1018.1
20260902060252 53 57 3.0 9.0 0.00 0.00 0.00 41 1018.0
20260902055751 53 67 4.0 8.0 0.00 0.00 0.00 42 1017.9
20260902055251 53 51 6.0 8.0 0.00 0.00 0.00 42 1017.9
20260902054751 53 71 6.0 8.0 0.00 0.00 0.00 43 1018.0
20260902054251 53 52 5.0 7.0 0.00 0.00 0.00 43 1017.9
20260902053751 53 56 3.0 6.0 0.00 0.00 0.00 44 1017.8
20260902052751 54 51 5.0 6.0 0.00 0.00 0.00 45 1017.9
20260902052251 54 63 5.0 8.0 0.00 0.00 0.00 45 1018.0
20260902051751 54 71 3.0 8.0 0.00 0.00 0.00 45 1017.9
20260902051250 54 74 4.0 8.0 0.00 0.00 0.00 46 1017.9
20260902050751 55 57 2.0 9.0 0.00 0.00 0.00 48 1018.2
20260902045750 55 59 2.0 7.0 0.00 0.00 0.00 50 1018.3
20260902045251 55 81 2.0 7.0 0.00 0.00 0.00 52 1018.3
20260902044750 55 61 4.0 7.0 0.00 0.00 0.00 53 1018.3
20260902044250 56 55 4.0 7.0 0.00 0.00 0.00 53 1018.3
20260902043750 56 74 3.0 5.0 0.00 0.00 0.00 56 1018.3
20260902043239 56 76 4.0 6.0 0.00 0.00 0.00 55 1018.2
20260902042250 56 67 3.0 7.0 0.00 0.00 0.00 56 1018.0
20260902041750 57 71 4.0 6.0 0.00 0.00 0.00 56 1018.2
20260902041250 57 61 3.0 6.0 0.00 0.00 0.00 57 1018.0
20260902040750 57 66 4.0 6.0 0.00 0.00 0.00 57 1017.9
20260902040250 58 67 3.0 5.0 0.00 0.00 0.00 56 1017.8
20260902035750 58 58 3.0 4.0 0.00 0.00 0.00 56 1017.2
20260902035249 59 54 4.0 4.0 0.00 0.00 0.00 55 1017.3
20260902034749 59 44 2.0 4.0 0.00 0.00 0.00 54 1017.3
20260902034249 60 9 3.0 4.0 0.00 0.00 0.00 53 1017.1
20260902033749 61 5 3.0 3.0 0.00 0.00 0.00 52 1017.3
20260902033249 61 360 1.0 3.0 0.00 0.00 0.00 52 1017.4
20260902032749 62 355 1.0 2.0 0.00 0.00 0.00 51 1017.2
20260902032249 63 247 0.0 0.0 0.00 0.00 0.00 50 1017.5
20260902030749 65 248 0.0 0.0 0.00 0.00 0.00 49 1017.5
20260902025749 66 248 0.0 0.0 0.00 0.00 0.00 48 1016.6
20260902025249 66 248 0.0 0.0 0.00 0.00 0.00 47 1016.4
20260902024248 67 248 0.0 0.0 0.00 0.00 0.00 46 1016.7
20260902023749 68 248 0.0 1.0 0.00 0.00 0.00 44 1016.7
20260902023249 68 248 0.0 4.0 0.00 0.00 0.00 43 1016.6
20260902022749 68 248 0.0 4.0 0.00 0.00 0.00 43 1016.5
20260902022248 69 241 1.0 4.0 0.00 0.00 0.00 43 1016.7
20260902021748 69 242 3.0 5.0 0.00 0.00 0.00 44 1016.6
20260902021249 69 242 3.0 6.0 0.00 0.00 0.00 44 1016.7
20260902020748 70 226 3.0 6.0 0.00 0.00 0.00 44 1016.7
20260902020248 70 234 1.0 5.0 0.00 0.00 0.00 44 1016.8
20260902015748 71 233 3.0 7.0 0.00 0.00 0.00 43 1015.4
20260902015248 71 236 2.0 7.0 0.00 0.00 0.00 41 1015.5
20260902014748 72 229 1.0 7.0 0.00 0.00 0.00 41 1015.7
20260902014248 72 226 5.0 8.0 0.00 0.00 0.00 41 1015.6
20260902013748 73 239 4.0 8.0 0.00 0.00 0.00 40 1015.7
20260902013248 73 232 3.0 8.0 0.00 0.00 0.00 38 1015.6
20260902012748 74 240 2.0 8.0 0.00 0.00 0.00 39 1015.7
20260902012247 74 246 5.0 10.0 0.00 0.00 0.00 39 1015.8
20260902011747 75 240 0.0 10.0 0.00 0.00 0.00 39 1015.8
20260902010747 75 244 4.0 9.0 0.00 0.00 0.00 40 1015.9
20260902010248 76 213 1.0 10.0 0.00 0.00 0.00 40 1016.1
20260902005748 76 244 1.0 11.0 0.00 0.00 0.00 40 1016.0
20260902005247 77 242 8.0 11.0 0.00 0.00 0.00 39 1016.0
20260902004747 77 236 10.0 12.0 0.00 0.00 0.00 39 1016.0
20260902004247 78 236 2.0 12.0 0.00 0.00 0.00 39 1016.1
20260902003247 78 269 7.0 10.0 0.00 0.00 0.00 38 1016.0
20260902002747 79 243 4.0 12.0 0.00 0.00 0.00 38 1016.1
20260902002247 79 252 8.0 12.0 0.00 0.00 0.00 38 1016.1
20260902001747 80 231 5.0 12.0 0.00 0.00 0.00 38 1016.4
20260902001247 80 209 3.0 12.0 0.00 0.00 0.00 38 1016.4
20260902000249 81 259 3.0 14.0 0.00 0.00 0.00 37 1016.6
20260901235747 81 252 2.0 14.0 0.00 0.00 0.00 37 1016.4
20260901235246 81 212 7.0 10.0 0.00 0.00 0.00 36 1016.4
20260901234746 82 189 8.0 11.0 0.00 0.00 0.00 36 1016.6
20260901234247 83 234 5.0 11.0 0.00 0.00 0.00 35 1016.7
20260901233746 83 254 2.0 10.0 0.00 0.00 0.00 35 1016.8
20260901233246 83 275 7.0 12.0 0.00 0.00 0.00 35 1016.9
20260901232746 83 203 4.0 12.0 0.00 0.00 0.00 35 1017.0